sensor_id;sensor_type;location;lat;lon;timestamp;pressure;altitude;pressure_sealevel;temperature;humidity
10466;BME280;5280;42.600;23.556;2023-03-14T00:01:10;93625.72;;;3.36;54.12
10466;BME280;5280;42.600;23.556;2023-03-14T00:03:37;93612.97;;;3.11;52.35
10466;BME280;5280;42.600;23.556;2023-03-14T00:06:05;93625.00;;;3.32;52.65
10466;BME280;5280;42.600;23.556;2023-03-14T00:08:32;93631.56;;;3.41;52.30
10466;BME280;5280;42.600;23.556;2023-03-14T00:11:04;93614.63;;;3.31;52.86
10466;BME280;5280;42.600;23.556;2023-03-14T00:13:32;93614.19;;;3.40;52.37
10466;BME280;5280;42.600;23.556;2023-03-14T00:16:03;93612.34;;;3.42;52.61
10466;BME280;5280;42.600;23.556;2023-03-14T00:18:30;93606.44;;;3.38;54.10
10466;BME280;5280;42.600;23.556;2023-03-14T00:20:58;93586.53;;;3.36;55.66
10466;BME280;5280;42.600;23.556;2023-03-14T00:23:26;93590.06;;;3.35;56.70
10466;BME280;5280;42.600;23.556;2023-03-14T00:25:59;93564.44;;;3.24;57.32
10466;BME280;5280;42.600;23.556;2023-03-14T00:28:26;93574.84;;;3.26;56.75
10466;BME280;5280;42.600;23.556;2023-03-14T00:30:54;93567.00;;;3.26;56.77
10466;BME280;5280;42.600;23.556;2023-03-14T00:33:21;93544.47;;;3.06;57.64
10466;BME280;5280;42.600;23.556;2023-03-14T00:35:55;93559.91;;;3.11;57.47
10466;BME280;5280;42.600;23.556;2023-03-14T00:38:22;93563.44;;;3.10;58.47
10466;BME280;5280;42.600;23.556;2023-03-14T00:40:50;93545.31;;;3.07;58.49
10466;BME280;5280;42.600;23.556;2023-03-14T00:43:17;93541.59;;;2.93;58.15
10466;BME280;5280;42.600;23.556;2023-03-14T00:45:46;93542.28;;;2.97;57.98
10466;BME280;5280;42.600;23.556;2023-03-14T00:48:14;93505.63;;;2.81;57.40
10466;BME280;5280;42.600;23.556;2023-03-14T00:50:45;93523.97;;;2.80;60.07
10466;BME280;5280;42.600;23.556;2023-03-14T00:53:12;93518.00;;;2.78;59.86
10466;BME280;5280;42.600;23.556;2023-03-14T00:55:40;93525.72;;;2.79;56.60
10466;BME280;5280;42.600;23.556;2023-03-14T00:58:08;93531.47;;;2.69;58.09
10466;BME280;5280;42.600;23.556;2023-03-14T01:00:35;93523.03;;;2.64;59.30
10466;BME280;5280;42.600;23.556;2023-03-14T01:03:03;93532.47;;;2.66;58.97
10466;BME280;5280;42.600;23.556;2023-03-14T01:05:32;93514.34;;;2.44;60.58
10466;BME280;5280;42.600;23.556;2023-03-14T01:07:59;93533.97;;;2.53;60.19
10466;BME280;5280;42.600;23.556;2023-03-14T01:10:26;93536.00;;;2.46;63.28
10466;BME280;5280;42.600;23.556;2023-03-14T01:12:53;93526.69;;;2.41;63.30
10466;BME280;5280;42.600;23.556;2023-03-14T01:15:20;93533.16;;;2.32;63.83
10466;BME280;5280;42.600;23.556;2023-03-14T01:17:47;93522.88;;;2.29;64.37
10466;BME280;5280;42.600;23.556;2023-03-14T01:20:14;93536.22;;;2.42;63.53
10466;BME280;5280;42.600;23.556;2023-03-14T01:22:43;93524.06;;;2.41;64.52
10466;BME280;5280;42.600;23.556;2023-03-14T01:25:12;93518.91;;;2.39;64.30
10466;BME280;5280;42.600;23.556;2023-03-14T01:27:39;93518.91;;;2.39;64.11
10466;BME280;5280;42.600;23.556;2023-03-14T01:30:07;93517.31;;;2.37;64.84
10466;BME280;5280;42.600;23.556;2023-03-14T01:32:34;93502.84;;;2.30;64.46
10466;BME280;5280;42.600;23.556;2023-03-14T01:35:01;93506.09;;;2.35;63.80
10466;BME280;5280;42.600;23.556;2023-03-14T01:37:28;93489.34;;;2.22;63.98
10466;BME280;5280;42.600;23.556;2023-03-14T01:39:56;93512.38;;;2.31;65.18
10466;BME280;5280;42.600;23.556;2023-03-14T01:42:23;93494.50;;;2.23;65.82
10466;BME280;5280;42.600;23.556;2023-03-14T01:44:52;93484.06;;;2.23;66.68
10466;BME280;5280;42.600;23.556;2023-03-14T01:47:20;93469.59;;;2.16;66.41
10466;BME280;5280;42.600;23.556;2023-03-14T01:49:49;93483.06;;;2.26;66.31
10466;BME280;5280;42.600;23.556;2023-03-14T01:52:21;93476.38;;;2.20;64.25
10466;BME280;5280;42.600;23.556;2023-03-14T01:54:51;93490.34;;;2.19;64.38
10466;BME280;5280;42.600;23.556;2023-03-14T01:57:23;93500.34;;;2.28;65.20
10466;BME280;5280;42.600;23.556;2023-03-14T01:59:54;93481.50;;;2.22;64.66
10466;BME280;5280;42.600;23.556;2023-03-14T02:02:26;93486.94;;;2.17;66.33
10466;BME280;5280;42.600;23.556;2023-03-14T02:04:54;93466.63;;;2.05;67.08
10466;BME280;5280;42.600;23.556;2023-03-14T02:07:25;93479.13;;;1.98;67.25
10466;BME280;5280;42.600;23.556;2023-03-14T02:09:58;93465.66;;;1.89;66.28
10466;BME280;5280;42.600;23.556;2023-03-14T02:12:27;93478.47;;;1.93;67.01
10466;BME280;5280;42.600;23.556;2023-03-14T02:14:54;93480.88;;;1.98;66.92
10466;BME280;5280;42.600;23.556;2023-03-14T02:17:22;93491.34;;;1.96;66.94
10466;BME280;5280;42.600;23.556;2023-03-14T02:19:57;93477.09;;;1.85;68.20
10466;BME280;5280;42.600;23.556;2023-03-14T02:22:31;93497.47;;;1.95;68.05
10466;BME280;5280;42.600;23.556;2023-03-14T02:25:04;93499.19;;;1.96;68.85
10466;BME280;5280;42.600;23.556;2023-03-14T02:27:34;93492.16;;;1.98;68.77
10466;BME280;5280;42.600;23.556;2023-03-14T02:30:06;93487.91;;;1.96;68.44
10466;BME280;5280;42.600;23.556;2023-03-14T02:32:36;93491.56;;;1.92;66.85
10466;BME280;5280;42.600;23.556;2023-03-14T02:35:06;93489.59;;;1.97;65.96
10466;BME280;5280;42.600;23.556;2023-03-14T02:37:37;93490.66;;;1.93;67.17
10466;BME280;5280;42.600;23.556;2023-03-14T02:40:07;93490.78;;;1.90;67.98
10466;BME280;5280;42.600;23.556;2023-03-14T02:42:36;93479.88;;;1.82;68.90
10466;BME280;5280;42.600;23.556;2023-03-14T02:48:09;93481.56;;;1.83;70.32
10466;BME280;5280;42.600;23.556;2023-03-14T02:50:37;93453.66;;;1.66;70.12
10466;BME280;5280;42.600;23.556;2023-03-14T02:53:04;93482.25;;;1.86;69.74
10466;BME280;5280;42.600;23.556;2023-03-14T02:55:31;93477.84;;;1.88;70.20
10466;BME280;5280;42.600;23.556;2023-03-14T02:57:59;93401.09;;;1.38;70.58
10466;BME280;5280;42.600;23.556;2023-03-14T03:00:26;93473.47;;;1.89;71.79
10466;BME280;5280;42.600;23.556;2023-03-14T03:02:53;93462.63;;;1.79;72.66
10466;BME280;5280;42.600;23.556;2023-03-14T03:05:20;93472.69;;;1.87;73.20
10466;BME280;5280;42.600;23.556;2023-03-14T03:07:47;93484.81;;;1.88;68.97
10466;BME280;5280;42.600;23.556;2023-03-14T03:10:14;93473.22;;;1.74;67.78
10466;BME280;5280;42.600;23.556;2023-03-14T03:12:40;93487.81;;;1.79;67.34
10466;BME280;5280;42.600;23.556;2023-03-14T03:15:09;93489.59;;;1.78;66.86
10466;BME280;5280;42.600;23.556;2023-03-14T03:17:36;93483.09;;;1.68;68.00
10466;BME280;5280;42.600;23.556;2023-03-14T03:20:03;93496.81;;;1.71;69.16
10466;BME280;5280;42.600;23.556;2023-03-14T03:22:34;93494.22;;;1.71;68.43
10466;BME280;5280;42.600;23.556;2023-03-14T03:25:00;93496.16;;;1.66;67.27
10466;BME280;5280;42.600;23.556;2023-03-14T03:27:29;93497.06;;;1.65;66.81
10466;BME280;5280;42.600;23.556;2023-03-14T03:29:59;93498.72;;;1.68;67.11
10466;BME280;5280;42.600;23.556;2023-03-14T03:32:27;93480.28;;;1.52;66.84
10466;BME280;5280;42.600;23.556;2023-03-14T03:34:57;93471.59;;;1.53;66.14
10466;BME280;5280;42.600;23.556;2023-03-14T03:37:23;93475.75;;;1.57;67.90
10466;BME280;5280;42.600;23.556;2023-03-14T03:39:50;93486.84;;;1.61;68.22
10466;BME280;5280;42.600;23.556;2023-03-14T03:42:18;93486.81;;;1.62;67.37
10466;BME280;5280;42.600;23.556;2023-03-14T03:44:45;93459.94;;;1.42;66.63
10466;BME280;5280;42.600;23.556;2023-03-14T03:47:12;93498.19;;;1.60;67.03
10466;BME280;5280;42.600;23.556;2023-03-14T03:49:40;93500.09;;;1.56;67.36
10466;BME280;5280;42.600;23.556;2023-03-14T03:52:07;93490.56;;;1.55;66.52
10466;BME280;5280;42.600;23.556;2023-03-14T03:54:35;93484.00;;;1.47;67.05
10466;BME280;5280;42.600;23.556;2023-03-14T03:57:02;93485.00;;;1.44;67.00
10466;BME280;5280;42.600;23.556;2023-03-14T03:59:29;93472.44;;;1.34;67.68
10466;BME280;5280;42.600;23.556;2023-03-14T04:01:56;93485.25;;;1.38;67.00
10466;BME280;5280;42.600;23.556;2023-03-14T04:04:22;93490.31;;;1.41;67.18
10466;BME280;5280;42.600;23.556;2023-03-14T04:06:50;93496.63;;;1.36;68.17
10466;BME280;5280;42.600;23.556;2023-03-14T04:09:17;93438.78;;;0.89;68.77
10466;BME280;5280;42.600;23.556;2023-03-14T04:11:44;93495.97;;;1.30;67.87
10466;BME280;5280;42.600;23.556;2023-03-14T04:14:11;93499.56;;;1.28;67.50
10466;BME280;5280;42.600;23.556;2023-03-14T04:16:38;93498.53;;;1.32;68.24
10466;BME280;5280;42.600;23.556;2023-03-14T04:19:05;93494.47;;;1.25;67.90
10466;BME280;5280;42.600;23.556;2023-03-14T04:21:31;93510.75;;;1.30;67.85
10466;BME280;5280;42.600;23.556;2023-03-14T04:23:59;93408.69;;;0.83;67.26
10466;BME280;5280;42.600;23.556;2023-03-14T04:26:26;93489.16;;;1.28;67.78
10466;BME280;5280;42.600;23.556;2023-03-14T04:28:53;93467.81;;;1.20;67.38
10466;BME280;5280;42.600;23.556;2023-03-14T04:31:21;93488.50;;;1.23;68.05
10466;BME280;5280;42.600;23.556;2023-03-14T04:33:48;93484.06;;;1.25;67.10
10466;BME280;5280;42.600;23.556;2023-03-14T04:36:15;93481.00;;;1.15;67.54
10466;BME280;5280;42.600;23.556;2023-03-14T04:38:42;93486.09;;;1.18;68.70
10466;BME280;5280;42.600;23.556;2023-03-14T04:41:10;93479.44;;;1.11;69.88
10466;BME280;5280;42.600;23.556;2023-03-14T04:43:37;93477.69;;;1.12;70.32
10466;BME280;5280;42.600;23.556;2023-03-14T04:46:05;93422.72;;;0.79;71.21
10466;BME280;5280;42.600;23.556;2023-03-14T04:48:31;93430.91;;;0.90;71.93
10466;BME280;5280;42.600;23.556;2023-03-14T04:50:58;93482.91;;;1.12;71.59
10466;BME280;5280;42.600;23.556;2023-03-14T04:53:25;93475.09;;;1.12;72.52
10466;BME280;5280;42.600;23.556;2023-03-14T04:55:54;93468.13;;;1.12;70.72
10466;BME280;5280;42.600;23.556;2023-03-14T04:58:23;93458.88;;;1.05;69.74
10466;BME280;5280;42.600;23.556;2023-03-14T05:00:50;93465.84;;;1.05;70.91
10466;BME280;5280;42.600;23.556;2023-03-14T05:03:18;93454.66;;;1.03;72.97
10466;BME280;5280;42.600;23.556;2023-03-14T05:05:45;93453.03;;;1.00;73.31
10466;BME280;5280;42.600;23.556;2023-03-14T05:08:12;93427.50;;;0.90;73.20
10466;BME280;5280;42.600;23.556;2023-03-14T05:10:39;93439.31;;;0.97;73.20
10466;BME280;5280;42.600;23.556;2023-03-14T05:13:06;93444.56;;;0.95;73.94
10466;BME280;5280;42.600;23.556;2023-03-14T05:15:34;93439.38;;;0.95;74.86
10466;BME280;5280;42.600;23.556;2023-03-14T05:18:01;93442.09;;;0.92;74.31
10466;BME280;5280;42.600;23.556;2023-03-14T05:20:27;93448.56;;;1.04;73.59
10466;BME280;5280;42.600;23.556;2023-03-14T05:22:54;93456.22;;;1.07;72.30
10466;BME280;5280;42.600;23.556;2023-03-14T05:25:21;93449.97;;;1.11;73.10
10466;BME280;5280;42.600;23.556;2023-03-14T05:27:48;93450.72;;;1.14;71.40
10466;BME280;5280;42.600;23.556;2023-03-14T05:30:14;93468.13;;;1.12;72.06
10466;BME280;5280;42.600;23.556;2023-03-14T05:32:43;93413.53;;;0.70;72.92
10466;BME280;5280;42.600;23.556;2023-03-14T05:35:09;93467.16;;;1.15;72.28
10466;BME280;5280;42.600;23.556;2023-03-14T05:37:36;93453.13;;;1.19;73.55
10466;BME280;5280;42.600;23.556;2023-03-14T05:40:04;93451.28;;;1.21;73.12
10466;BME280;5280;42.600;23.556;2023-03-14T05:42:32;93451.38;;;1.19;73.13
10466;BME280;5280;42.600;23.556;2023-03-14T05:44:59;93445.81;;;1.27;73.72
10466;BME280;5280;42.600;23.556;2023-03-14T05:47:26;93442.88;;;1.35;75.31
10466;BME280;5280;42.600;23.556;2023-03-14T05:49:54;93433.19;;;1.38;75.31
10466;BME280;5280;42.600;23.556;2023-03-14T05:52:21;93435.66;;;1.41;75.85
10466;BME280;5280;42.600;23.556;2023-03-14T05:54:48;93434.53;;;1.47;76.14
10466;BME280;5280;42.600;23.556;2023-03-14T05:57:14;93436.88;;;1.53;74.80
10466;BME280;5280;42.600;23.556;2023-03-14T05:59:41;93442.69;;;1.59;74.15
10466;BME280;5280;42.600;23.556;2023-03-14T06:02:08;93428.44;;;1.66;74.40
10466;BME280;5280;42.600;23.556;2023-03-14T06:04:35;93432.88;;;1.64;74.43
10466;BME280;5280;42.600;23.556;2023-03-14T06:07:03;93419.09;;;1.62;75.43
10466;BME280;5280;42.600;23.556;2023-03-14T06:09:30;93442.34;;;1.86;75.60
10466;BME280;5280;42.600;23.556;2023-03-14T06:11:56;93448.19;;;1.91;73.99
10466;BME280;5280;42.600;23.556;2023-03-14T06:14:23;93428.34;;;1.88;72.48
10466;BME280;5280;42.600;23.556;2023-03-14T06:16:50;93435.94;;;1.93;71.83
10466;BME280;5280;42.600;23.556;2023-03-14T06:19:18;93450.72;;;2.11;71.12
10466;BME280;5280;42.600;23.556;2023-03-14T06:21:44;93439.81;;;2.22;71.13
10466;BME280;5280;42.600;23.556;2023-03-14T06:24:16;93425.78;;;2.24;69.89
10466;BME280;5280;42.600;23.556;2023-03-14T06:26:43;93436.59;;;2.52;69.54
10466;BME280;5280;42.600;23.556;2023-03-14T06:29:09;93433.25;;;2.68;69.26
10466;BME280;5280;42.600;23.556;2023-03-14T06:31:36;93415.69;;;2.71;69.27
10466;BME280;5280;42.600;23.556;2023-03-14T06:34:03;93415.47;;;2.93;69.20
10466;BME280;5280;42.600;23.556;2023-03-14T06:36:30;93415.25;;;2.97;69.53
10466;BME280;5280;42.600;23.556;2023-03-14T06:38:57;93408.66;;;3.08;70.05
10466;BME280;5280;42.600;23.556;2023-03-14T06:41:25;93413.00;;;3.24;69.94
10466;BME280;5280;42.600;23.556;2023-03-14T06:43:52;93419.06;;;3.42;69.12
10466;BME280;5280;42.600;23.556;2023-03-14T06:46:19;93426.50;;;3.50;68.99
10466;BME280;5280;42.600;23.556;2023-03-14T06:48:46;93437.22;;;3.61;68.49
10466;BME280;5280;42.600;23.556;2023-03-14T06:51:12;93436.84;;;3.68;69.03
10466;BME280;5280;42.600;23.556;2023-03-14T06:53:39;93445.72;;;3.81;67.56
10466;BME280;5280;42.600;23.556;2023-03-14T06:56:07;93426.75;;;3.78;67.23
10466;BME280;5280;42.600;23.556;2023-03-14T06:58:35;93431.22;;;3.76;68.65
10466;BME280;5280;42.600;23.556;2023-03-14T07:01:02;93422.03;;;3.84;67.58
10466;BME280;5280;42.600;23.556;2023-03-14T07:03:29;93416.16;;;3.97;67.36
10466;BME280;5280;42.600;23.556;2023-03-14T07:05:55;93428.66;;;4.07;67.15
10466;BME280;5280;42.600;23.556;2023-03-14T07:08:22;93413.31;;;4.17;67.14
10466;BME280;5280;42.600;23.556;2023-03-14T07:10:49;93416.19;;;4.28;67.67
10466;BME280;5280;42.600;23.556;2023-03-14T07:13:16;93386.31;;;4.16;66.76
10466;BME280;5280;42.600;23.556;2023-03-14T07:15:45;93404.38;;;4.52;65.83
10466;BME280;5280;42.600;23.556;2023-03-14T07:18:11;93404.72;;;4.62;66.09
10466;BME280;5280;42.600;23.556;2023-03-14T07:20:38;93381.72;;;4.67;65.59
10466;BME280;5280;42.600;23.556;2023-03-14T07:23:05;93398.06;;;4.86;63.46
10466;BME280;5280;42.600;23.556;2023-03-14T07:25:32;93389.59;;;4.97;62.31
10466;BME280;5280;42.600;23.556;2023-03-14T07:27:59;93386.81;;;5.00;63.10
10466;BME280;5280;42.600;23.556;2023-03-14T07:30:26;93391.06;;;5.16;61.37
10466;BME280;5280;42.600;23.556;2023-03-14T07:32:57;93376.19;;;5.17;61.99
10466;BME280;5280;42.600;23.556;2023-03-14T07:35:24;93384.47;;;5.39;61.40
10466;BME280;5280;42.600;23.556;2023-03-14T07:37:51;93387.09;;;5.39;59.65
10466;BME280;5280;42.600;23.556;2023-03-14T07:40:18;93379.22;;;5.53;59.94
10466;BME280;5280;42.600;23.556;2023-03-14T07:42:45;93375.03;;;5.65;58.27
10466;BME280;5280;42.600;23.556;2023-03-14T07:45:12;93368.88;;;5.66;57.33
10466;BME280;5280;42.600;23.556;2023-03-14T07:47:39;93363.41;;;5.69;57.49
10466;BME280;5280;42.600;23.556;2023-03-14T07:50:09;93360.91;;;5.82;57.50
10466;BME280;5280;42.600;23.556;2023-03-14T07:52:35;93359.97;;;6.11;57.56
10466;BME280;5280;42.600;23.556;2023-03-14T07:55:02;93307.06;;;5.90;55.10
10466;BME280;5280;42.600;23.556;2023-03-14T07:57:29;93363.94;;;6.45;54.79
10466;BME280;5280;42.600;23.556;2023-03-14T07:59:56;93327.94;;;6.47;53.86
10466;BME280;5280;42.600;23.556;2023-03-14T08:02:24;93318.41;;;6.59;53.89
10466;BME280;5280;42.600;23.556;2023-03-14T08:04:51;93348.63;;;6.78;53.01
10466;BME280;5280;42.600;23.556;2023-03-14T08:07:19;93356.16;;;6.97;52.59
10466;BME280;5280;42.600;23.556;2023-03-14T08:09:46;93350.84;;;7.11;51.39
10466;BME280;5280;42.600;23.556;2023-03-14T08:12:12;93350.41;;;7.17;51.35
10466;BME280;5280;42.600;23.556;2023-03-14T08:14:41;93342.78;;;7.40;51.55
10466;BME280;5280;42.600;23.556;2023-03-14T08:17:08;93349.72;;;7.53;49.88
10466;BME280;5280;42.600;23.556;2023-03-14T08:19:35;93320.38;;;7.47;51.02
10466;BME280;5280;42.600;23.556;2023-03-14T08:22:03;93315.97;;;7.60;49.66
10466;BME280;5280;42.600;23.556;2023-03-14T08:24:31;93328.81;;;7.77;49.63
10466;BME280;5280;42.600;23.556;2023-03-14T08:26:58;93350.31;;;8.07;48.12
10466;BME280;5280;42.600;23.556;2023-03-14T08:29:25;93349.56;;;8.18;48.44
10466;BME280;5280;42.600;23.556;2023-03-14T08:31:52;93343.88;;;8.24;48.64
10466;BME280;5280;42.600;23.556;2023-03-14T08:34:21;93350.16;;;8.47;47.60
10466;BME280;5280;42.600;23.556;2023-03-14T08:36:47;93351.06;;;8.58;48.48
10466;BME280;5280;42.600;23.556;2023-03-14T08:39:14;93344.19;;;8.69;47.98
10466;BME280;5280;42.600;23.556;2023-03-14T08:41:42;93331.19;;;8.78;48.13
10466;BME280;5280;42.600;23.556;2023-03-14T08:44:10;93337.63;;;8.98;47.67
10466;BME280;5280;42.600;23.556;2023-03-14T08:46:37;93332.06;;;9.14;45.98
10466;BME280;5280;42.600;23.556;2023-03-14T08:49:04;93287.19;;;8.91;45.11
10466;BME280;5280;42.600;23.556;2023-03-14T08:51:31;93321.81;;;9.33;45.84
10466;BME280;5280;42.600;23.556;2023-03-14T08:53:58;93320.25;;;9.41;46.57
10466;BME280;5280;42.600;23.556;2023-03-14T08:56:24;93316.94;;;9.50;45.25
10466;BME280;5280;42.600;23.556;2023-03-14T08:58:52;93304.75;;;9.61;46.45
10466;BME280;5280;42.600;23.556;2023-03-14T09:01:19;93312.06;;;9.79;45.09
10466;BME280;5280;42.600;23.556;2023-03-14T09:03:49;93298.97;;;9.78;45.04
10466;BME280;5280;42.600;23.556;2023-03-14T09:06:16;93293.72;;;10.00;46.05
10466;BME280;5280;42.600;23.556;2023-03-14T09:08:43;93290.47;;;9.97;45.38
10466;BME280;5280;42.600;23.556;2023-03-14T09:11:10;93282.56;;;10.19;44.52
10466;BME280;5280;42.600;23.556;2023-03-14T09:13:37;93278.13;;;10.08;43.95
10466;BME280;5280;42.600;23.556;2023-03-14T09:16:06;93273.69;;;10.31;43.57
10466;BME280;5280;42.600;23.556;2023-03-14T09:18:33;93274.97;;;10.48;42.50
10466;BME280;5280;42.600;23.556;2023-03-14T09:21:00;93270.00;;;10.65;42.74
10466;BME280;5280;42.600;23.556;2023-03-14T09:23:27;93259.84;;;10.82;42.91
10466;BME280;5280;42.600;23.556;2023-03-14T09:25:55;93261.69;;;11.02;41.77
10466;BME280;5280;42.600;23.556;2023-03-14T09:28:22;93259.19;;;11.21;41.29
10466;BME280;5280;42.600;23.556;2023-03-14T09:30:48;93249.50;;;11.31;40.42
10466;BME280;5280;42.600;23.556;2023-03-14T09:33:17;93247.97;;;11.49;41.23
10466;BME280;5280;42.600;23.556;2023-03-14T09:35:44;93216.91;;;11.51;40.17
10466;BME280;5280;42.600;23.556;2023-03-14T09:38:11;93229.19;;;11.73;39.86
10466;BME280;5280;42.600;23.556;2023-03-14T09:40:38;93211.00;;;11.89;39.21
10466;BME280;5280;42.600;23.556;2023-03-14T09:43:05;93155.03;;;11.73;40.92
10466;BME280;5280;42.600;23.556;2023-03-14T09:45:34;93199.50;;;12.10;38.72
10466;BME280;5280;42.600;23.556;2023-03-14T09:48:03;93204.53;;;12.22;37.99
10466;BME280;5280;42.600;23.556;2023-03-14T09:50:36;93195.63;;;12.23;38.67
10466;BME280;5280;42.600;23.556;2023-03-14T09:53:08;93191.50;;;12.40;39.07
10466;BME280;5280;42.600;23.556;2023-03-14T09:55:37;93197.34;;;12.53;36.53
10466;BME280;5280;42.600;23.556;2023-03-14T09:58:11;93167.22;;;12.44;37.73
10466;BME280;5280;42.600;23.556;2023-03-14T10:00:38;93164.44;;;12.75;37.20
10466;BME280;5280;42.600;23.556;2023-03-14T10:03:21;93163.59;;;12.93;36.44
10466;BME280;5280;42.600;23.556;2023-03-14T10:05:50;93137.34;;;12.90;37.23
10466;BME280;5280;42.600;23.556;2023-03-14T10:08:17;93129.22;;;13.21;35.53
10466;BME280;5280;42.600;23.556;2023-03-14T10:10:44;93135.88;;;13.44;35.61
10466;BME280;5280;42.600;23.556;2023-03-14T10:13:15;93130.25;;;13.57;35.12
10466;BME280;5280;42.600;23.556;2023-03-14T10:15:48;93131.00;;;13.76;33.70
10466;BME280;5280;42.600;23.556;2023-03-14T10:18:15;93119.97;;;13.71;35.00
10466;BME280;5280;42.600;23.556;2023-03-14T10:20:43;93109.22;;;13.73;34.06
10466;BME280;5280;42.600;23.556;2023-03-14T10:23:26;93102.75;;;13.75;34.78
10466;BME280;5280;42.600;23.556;2023-03-14T10:26:07;93089.66;;;13.74;34.60
10466;BME280;5280;42.600;23.556;2023-03-14T10:28:38;93106.25;;;14.03;34.85
10466;BME280;5280;42.600;23.556;2023-03-14T10:31:06;93092.72;;;14.24;34.93
10466;BME280;5280;42.600;23.556;2023-03-14T10:33:34;93091.44;;;14.46;34.11
10466;BME280;5280;42.600;23.556;2023-03-14T10:36:02;93086.81;;;14.65;33.48
10466;BME280;5280;42.600;23.556;2023-03-14T10:38:32;93064.22;;;14.70;33.98
10466;BME280;5280;42.600;23.556;2023-03-14T10:40:59;93066.28;;;14.76;32.78
10466;BME280;5280;42.600;23.556;2023-03-14T10:43:27;93078.69;;;14.67;33.44
10466;BME280;5280;42.600;23.556;2023-03-14T10:46:00;93064.16;;;14.61;33.93
10466;BME280;5280;42.600;23.556;2023-03-14T10:48:32;93062.72;;;14.67;33.33
10466;BME280;5280;42.600;23.556;2023-03-14T10:51:05;93028.78;;;14.43;33.32
10466;BME280;5280;42.600;23.556;2023-03-14T10:53:39;93036.75;;;14.43;32.79
10466;BME280;5280;42.600;23.556;2023-03-14T10:56:06;93040.00;;;14.55;33.36
10466;BME280;5280;42.600;23.556;2023-03-14T10:58:37;93043.50;;;14.55;34.08
10466;BME280;5280;42.600;23.556;2023-03-14T11:01:16;93022.91;;;14.57;33.59
10466;BME280;5280;42.600;23.556;2023-03-14T11:03:53;93029.44;;;14.28;32.95
10466;BME280;5280;42.600;23.556;2023-03-14T11:06:28;93023.16;;;14.46;33.49
10466;BME280;5280;42.600;23.556;2023-03-14T11:09:00;93009.66;;;14.30;32.55
10466;BME280;5280;42.600;23.556;2023-03-14T11:11:31;92994.28;;;14.16;33.68
10466;BME280;5280;42.600;23.556;2023-03-14T11:14:07;93006.88;;;14.32;33.04
10466;BME280;5280;42.600;23.556;2023-03-14T11:16:44;92985.56;;;14.23;33.52
10466;BME280;5280;42.600;23.556;2023-03-14T11:19:20;92987.91;;;14.44;33.75
10466;BME280;5280;42.600;23.556;2023-03-14T11:21:55;92982.34;;;14.55;33.87
10466;BME280;5280;42.600;23.556;2023-03-14T11:24:36;92981.72;;;14.61;32.86
10466;BME280;5280;42.600;23.556;2023-03-14T11:27:15;92961.97;;;14.64;33.11
10466;BME280;5280;42.600;23.556;2023-03-14T11:29:50;92947.00;;;14.63;33.23
10466;BME280;5280;42.600;23.556;2023-03-14T11:32:27;92956.13;;;14.86;32.33
10466;BME280;5280;42.600;23.556;2023-03-14T11:35:02;92954.53;;;14.76;32.91
10466;BME280;5280;42.600;23.556;2023-03-14T11:37:33;92940.47;;;14.83;32.54
10466;BME280;5280;42.600;23.556;2023-03-14T11:40:08;92938.56;;;15.01;33.32
10466;BME280;5280;42.600;23.556;2023-03-14T11:42:42;92930.06;;;14.98;32.85
10466;BME280;5280;42.600;23.556;2023-03-14T11:45:16;92919.00;;;14.85;31.93
10466;BME280;5280;42.600;23.556;2023-03-14T11:47:47;92928.03;;;14.92;32.65
10466;BME280;5280;42.600;23.556;2023-03-14T11:50:20;92905.72;;;14.85;32.55
10466;BME280;5280;42.600;23.556;2023-03-14T11:52:51;92911.50;;;14.80;31.58
10466;BME280;5280;42.600;23.556;2023-03-14T11:55:24;92916.72;;;14.90;31.50
10466;BME280;5280;42.600;23.556;2023-03-14T11:57:58;92905.72;;;14.85;31.98
10466;BME280;5280;42.600;23.556;2023-03-14T12:00:26;92892.63;;;14.91;32.87
10466;BME280;5280;42.600;23.556;2023-03-14T12:02:58;92900.81;;;14.98;30.88
10466;BME280;5280;42.600;23.556;2023-03-14T12:05:56;92905.16;;;15.07;32.49
10466;BME280;5280;42.600;23.556;2023-03-14T12:08:43;92897.19;;;15.07;31.43
10466;BME280;5280;42.600;23.556;2023-03-14T12:11:20;92887.53;;;15.06;31.65
10466;BME280;5280;42.600;23.556;2023-03-14T12:13:49;92886.03;;;15.03;30.89
10466;BME280;5280;42.600;23.556;2023-03-14T12:16:31;92884.72;;;15.07;31.03
10466;BME280;5280;42.600;23.556;2023-03-14T12:19:14;92875.19;;;14.97;30.98
10466;BME280;5280;42.600;23.556;2023-03-14T12:21:51;92877.34;;;14.93;31.06
10466;BME280;5280;42.600;23.556;2023-03-14T12:24:21;92856.22;;;14.92;30.62
10466;BME280;5280;42.600;23.556;2023-03-14T12:26:56;92864.91;;;15.02;31.40
10466;BME280;5280;42.600;23.556;2023-03-14T12:29:23;92849.56;;;14.96;30.79
10466;BME280;5280;42.600;23.556;2023-03-14T12:32:06;92863.63;;;15.14;30.56
10466;BME280;5280;42.600;23.556;2023-03-14T12:34:34;92840.97;;;15.10;29.98
10466;BME280;5280;42.600;23.556;2023-03-14T12:37:16;92847.31;;;15.09;30.64
10466;BME280;5280;42.600;23.556;2023-03-14T12:39:53;92837.59;;;15.00;31.24
10466;BME280;5280;42.600;23.556;2023-03-14T12:42:37;92841.00;;;15.18;31.93
10466;BME280;5280;42.600;23.556;2023-03-14T12:45:21;92840.84;;;15.28;29.96
10466;BME280;5280;42.600;23.556;2023-03-14T12:48:09;92838.34;;;15.18;30.84
10466;BME280;5280;42.600;23.556;2023-03-14T12:50:43;92842.97;;;15.16;29.50
10466;BME280;5280;42.600;23.556;2023-03-14T12:53:46;92839.34;;;15.25;30.67
10466;BME280;5280;42.600;23.556;2023-03-14T12:56:39;92832.03;;;15.35;31.40
10466;BME280;5280;42.600;23.556;2023-03-14T12:59:34;92831.03;;;15.28;30.13
10466;BME280;5280;42.600;23.556;2023-03-14T13:02:13;92838.69;;;15.31;29.96
10466;BME280;5280;42.600;23.556;2023-03-14T13:04:46;92817.88;;;15.19;30.35
10466;BME280;5280;42.600;23.556;2023-03-14T13:07:30;92825.09;;;15.42;29.98
10466;BME280;5280;42.600;23.556;2023-03-14T13:12:50;92822.22;;;15.28;30.29
10466;BME280;5280;42.600;23.556;2023-03-14T13:15:29;92805.72;;;15.16;29.65
10466;BME280;5280;42.600;23.556;2023-03-14T13:18:02;92783.44;;;15.09;30.36
10466;BME280;5280;42.600;23.556;2023-03-14T13:20:31;92803.28;;;15.39;31.18
10466;BME280;5280;42.600;23.556;2023-03-14T13:22:58;92800.28;;;15.34;29.63
10466;BME280;5280;42.600;23.556;2023-03-14T13:25:30;92795.59;;;15.28;30.33